»·PEaware :: N716TH KBUR-KFUL

N716TH :: KBUR-KFUL

FLIGHT INFORMATION

Flight Status: Arrived
Operator: Privately registered:
United States
More flights under this callsign
Pilot: Danny R. (17997)
Aircraft: CESSNA 172 SKYHAWK
(C172)
More flights by this aircraft type
Origin: KBUR Bob Hope-Burbank
United States
Destination: KFUL Fullerton Mun
United States
More flights between these airports :: More routes between these airports
Route: +
File this flight plan on PilotEdge
Remarks: cat9
Altitude:
(Current/Filed)
3,500ft
Speed:
(Current/Filed)
0kts
Departed: 23-Feb-18 09:23 AM
Arrived: 23-Feb-18 09:45 AM
Distance/Time
Traveled:
27nm/0:22
Distance/Time
To Go:
Arrived

Flight Plot

Page will automatically refresh every two minutes.


Map Options




Map Legend


Flown Route
Filed Route
Departure Airport
Arrival Airport
Navaid (VOR, NDB)
Fix

Horizontal Profiles

Position Reports

Time Latitude Longitude Heading Altitude Ground
Speed
23-Feb-18 09:15 34.200815 -118.359127 258 781ft 0kts
23-Feb-18 09:16 34.200815 -118.359127 258 781ft 0kts
23-Feb-18 09:17 34.200815 -118.359127 258 781ft 0kts
23-Feb-18 09:18 34.200815 -118.359127 258 781ft 0kts
23-Feb-18 09:19 34.200815 -118.359127 258 781ft 0kts
23-Feb-18 09:20 34.200815 -118.359127 258 781ft 0kts
23-Feb-18 09:21 34.200810 -118.359159 258 781ft 1kts
23-Feb-18 09:22 34.203250 -118.359111 348 781ft 11kts
23-Feb-18 09:23 34.205969 -118.359876 345 781ft 13kts
23-Feb-18 09:24 34.209801 -118.360918 347 781ft 14kts
23-Feb-18 09:25 34.211077 -118.361274 350 781ft 0kts
23-Feb-18 09:26 34.211866 -118.361496 20 781ft 0kts
23-Feb-18 09:27 34.211866 -118.361496 20 781ft 0kts
23-Feb-18 09:28 34.212068 -118.361373 34 781ft 3kts
23-Feb-18 09:29 34.212080 -118.361363 34 781ft 0kts
23-Feb-18 09:30 34.203331 -118.358082 167 895ft 92kts
23-Feb-18 09:31 34.179050 -118.351230 143 1826ft 80kts
23-Feb-18 09:32 34.160008 -118.331510 90 2315ft 94kts
23-Feb-18 09:33 34.158850 -118.297507 90 2357ft 100kts
23-Feb-18 09:34 34.158354 -118.265752 90 2431ft 88kts
23-Feb-18 09:35 34.159656 -118.236399 83 2386ft 92kts
23-Feb-18 09:36 34.164811 -118.206965 80 2489ft 81kts
23-Feb-18 09:37 34.166507 -118.180216 83 2656ft 79kts
23-Feb-18 09:38 34.152434 -118.152429 126 2471ft 111kts
23-Feb-18 09:39 34.134365 -118.125250 122 2954ft 95kts
23-Feb-18 09:40 34.120499 -118.096159 112 3409ft 106kts
23-Feb-18 09:41 34.108392 -118.060723 107 3400ft 111kts
23-Feb-18 09:42 34.096575 -118.026735 121 3395ft 111kts
23-Feb-18 09:43 34.070281 -118.021639 200 3383ft 101kts
23-Feb-18 09:44 34.042095 -118.021594 176 3381ft 103kts
23-Feb-18 09:45 34.013750 -118.015123 171 3286ft 108kts
23-Feb-18 09:46 33.984076 -118.007667 171 2563ft 113kts
23-Feb-18 09:47 33.956185 -117.999540 148 2501ft 100kts
23-Feb-18 09:48 33.932451 -117.990738 166 2474ft 91kts
23-Feb-18 09:49 33.908173 -117.984286 180 2235ft 89kts
23-Feb-18 09:50 33.887678 -117.970343 102 1158ft 103kts
23-Feb-18 09:51 33.874372 -117.967051 269 514ft 66kts
23-Feb-18 09:52 33.871797 -117.981024 258 100ft 3kts
23-Feb-18 09:53 33.871357 -117.981149 153 100ft 0kts
23-Feb-18 09:54 33.871357 -117.981149 153 100ft 0kts
23-Feb-18 09:55 33.871357 -117.981149 153 100ft 0kts
23-Feb-18 09:56 33.871642 -117.979485 100 100ft 8kts
23-Feb-18 09:57 33.871306 -117.978974 78 100ft 0kts
23-Feb-18 09:58 33.871306 -117.978974 78 100ft 0kts
23-Feb-18 09:59 33.871306 -117.978974 78 100ft 0kts
23-Feb-18 10:00 33.871306 -117.978974 78 100ft 0kts
23-Feb-18 10:01 33.871306 -117.978974 78 100ft 0kts
23-Feb-18 10:02 33.871306 -117.978974 78 100ft 0kts
23-Feb-18 10:03 33.871306 -117.978974 78 100ft 0kts
23-Feb-18 10:04 33.871306 -117.978974 78 100ft 0kts
23-Feb-18 10:05 33.871306 -117.978974 78 100ft 0kts
23-Feb-18 10:06 33.871306 -117.978974 78 100ft 0kts

Navigation Log

Ident Type
1. KBUR Airport
2. KFUL Airport